Beehive, Montana
Current Conditions -  °F | °C
As of 9:53 AM on Friday 28 Nov 2014 (Local Time) from KLVM Reporting Station
Overcast Overcast  
Wind Chill: 54°   Ceiling: 8000
Heat Index: 54°   Visibility: 10mi
Dew Point: 22°   Wind: 33mph
Humidity: 29%   Direction: 220°SW
Pressure: 29.63"   Gusts: 44mph
Location:  45.4577°N, 109.823°W
Report Text: KLVM 281653Z AUTO 22029G38KT 10SM BKN080 OVC095 12/M06 A2963 RMK AO2 PK WND 22043/1621 SLP012 T01221056
Loading
Personal Weather Stations






























Interactive Weather Map New forecast layout! Learn more

10-Day Weather Forecast

Advertisements
Track Severe Weather on mobile